sensor_id;sensor_type;location;lat;lon;timestamp;pressure;altitude;pressure_sealevel;temperature;humidity
23899;BME280;20544;50.018;20.010;2023-01-25T00:02:54;100761.27;;;0.64;100.00
23899;BME280;20544;50.018;20.010;2023-01-25T00:06:10;100761.63;;;0.56;100.00
23899;BME280;20544;50.018;20.010;2023-01-25T00:09:27;100757.39;;;0.54;100.00
23899;BME280;20544;50.018;20.010;2023-01-25T00:12:44;100762.89;;;0.67;100.00
23899;BME280;20544;50.018;20.010;2023-01-25T00:16:04;100746.86;;;0.74;100.00
23899;BME280;20544;50.018;20.010;2023-01-25T00:19:21;100748.48;;;0.77;100.00
23899;BME280;20544;50.018;20.010;2023-01-25T00:22:37;100756.52;;;0.72;100.00
23899;BME280;20544;50.018;20.010;2023-01-25T00:25:58;100737.05;;;0.60;100.00
23899;BME280;20544;50.018;20.010;2023-01-25T00:29:16;100753.44;;;0.64;100.00
23899;BME280;20544;50.018;20.010;2023-01-25T00:32:46;100751.45;;;0.69;100.00
23899;BME280;20544;50.018;20.010;2023-01-25T00:36:26;100736.41;;;0.74;100.00
23899;BME280;20544;50.018;20.010;2023-01-25T00:39:45;100743.13;;;0.80;100.00
23899;BME280;20544;50.018;20.010;2023-01-25T00:43:02;100741.98;;;0.86;100.00
23899;BME280;20544;50.018;20.010;2023-01-25T00:46:19;100751.31;;;0.91;100.00
23899;BME280;20544;50.018;20.010;2023-01-25T00:49:36;100739.45;;;0.84;100.00
23899;BME280;20544;50.018;20.010;2023-01-25T00:52:54;100734.58;;;0.76;100.00
23899;BME280;20544;50.018;20.010;2023-01-25T00:56:10;100731.39;;;0.70;100.00
23899;BME280;20544;50.018;20.010;2023-01-25T00:59:27;100721.64;;;0.73;100.00
23899;BME280;20544;50.018;20.010;2023-01-25T01:02:44;100728.36;;;0.79;100.00
23899;BME280;20544;50.018;20.010;2023-01-25T01:06:06;100722.94;;;0.84;100.00
23899;BME280;20544;50.018;20.010;2023-01-25T01:09:25;100722.86;;;0.85;100.00
23899;BME280;20544;50.018;20.010;2023-01-25T01:12:41;100718.34;;;0.89;100.00
23899;BME280;20544;50.018;20.010;2023-01-25T01:16:01;100708.64;;;0.91;100.00
23899;BME280;20544;50.018;20.010;2023-01-25T01:19:20;100711.95;;;0.94;100.00
23899;BME280;20544;50.018;20.010;2023-01-25T01:22:37;100699.17;;;0.88;100.00
23899;BME280;20544;50.018;20.010;2023-01-25T01:25:54;100699.13;;;0.90;100.00
23899;BME280;20544;50.018;20.010;2023-01-25T01:29:13;100686.89;;;0.90;100.00
23899;BME280;20544;50.018;20.010;2023-01-25T01:32:29;100679.51;;;0.81;100.00
23899;BME280;20544;50.018;20.010;2023-01-25T01:35:46;100667.12;;;0.85;100.00
23899;BME280;20544;50.018;20.010;2023-01-25T01:39:05;100664.80;;;0.78;100.00
23899;BME280;20544;50.018;20.010;2023-01-25T01:42:22;100664.95;;;0.75;100.00
23899;BME280;20544;50.018;20.010;2023-01-25T01:45:54;100660.72;;;0.73;100.00
23899;BME280;20544;50.018;20.010;2023-01-25T01:49:18;100660.22;;;0.84;100.00
23899;BME280;20544;50.018;20.010;2023-01-25T01:52:39;100662.75;;;0.85;100.00
23899;BME280;20544;50.018;20.010;2023-01-25T01:55:58;100655.91;;;0.83;100.00
23899;BME280;20544;50.018;20.010;2023-01-25T01:59:16;100654.92;;;0.85;100.00
23899;BME280;20544;50.018;20.010;2023-01-25T02:02:34;100652.52;;;0.80;100.00
23899;BME280;20544;50.018;20.010;2023-01-25T02:05:54;100636.59;;;0.68;100.00
23899;BME280;20544;50.018;20.010;2023-01-25T02:09:16;100637.42;;;0.68;100.00
23899;BME280;20544;50.018;20.010;2023-01-25T02:12:36;100633.60;;;0.75;100.00
23899;BME280;20544;50.018;20.010;2023-01-25T02:15:54;100629.86;;;0.81;100.00
23899;BME280;20544;50.018;20.010;2023-01-25T02:19:15;100633.23;;;0.83;100.00
23899;BME280;20544;50.018;20.010;2023-01-25T02:22:36;100629.00;;;0.80;100.00
23899;BME280;20544;50.018;20.010;2023-01-25T02:25:55;100626.01;;;0.88;100.00
23899;BME280;20544;50.018;20.010;2023-01-25T02:29:14;100636.05;;;0.78;100.00
23899;BME280;20544;50.018;20.010;2023-01-25T02:32:32;100637.75;;;0.79;100.00
23899;BME280;20544;50.018;20.010;2023-01-25T02:35:52;100647.66;;;0.73;100.00
23899;BME280;20544;50.018;20.010;2023-01-25T02:39:13;100644.89;;;0.76;100.00
23899;BME280;20544;50.018;20.010;2023-01-25T02:42:34;100643.97;;;0.77;100.00
23899;BME280;20544;50.018;20.010;2023-01-25T02:45:56;100636.84;;;0.80;100.00
23899;BME280;20544;50.018;20.010;2023-01-25T02:49:14;100636.05;;;0.78;100.00
23899;BME280;20544;50.018;20.010;2023-01-25T02:55:48;100638.94;;;0.91;100.00
23899;BME280;20544;50.018;20.010;2023-01-25T02:59:04;100630.41;;;0.88;100.00
23899;BME280;20544;50.018;20.010;2023-01-25T03:02:33;100630.61;;;0.83;100.00
23899;BME280;20544;50.018;20.010;2023-01-25T03:05:51;100623.64;;;0.84;100.00
23899;BME280;20544;50.018;20.010;2023-01-25T03:09:08;100629.70;;;0.84;100.00
23899;BME280;20544;50.018;20.010;2023-01-25T03:12:27;100639.69;;;0.93;100.00
23899;BME280;20544;50.018;20.010;2023-01-25T03:15:43;100625.80;;;0.93;100.00
23899;BME280;20544;50.018;20.010;2023-01-25T03:19:00;100625.47;;;0.82;100.00
23899;BME280;20544;50.018;20.010;2023-01-25T03:22:17;100627.70;;;0.89;100.00
23899;BME280;20544;50.018;20.010;2023-01-25T03:25:35;100624.66;;;0.99;100.00
23899;BME280;20544;50.018;20.010;2023-01-25T03:28:53;100633.17;;;1.02;100.00
23899;BME280;20544;50.018;20.010;2023-01-25T03:32:09;100631.20;;;1.07;100.00
23899;BME280;20544;50.018;20.010;2023-01-25T03:35:26;100631.03;;;1.10;100.00
23899;BME280;20544;50.018;20.010;2023-01-25T03:38:44;100625.73;;;1.12;100.00
23899;BME280;20544;50.018;20.010;2023-01-25T03:42:01;100622.19;;;1.13;100.00
23899;BME280;20544;50.018;20.010;2023-01-25T03:45:18;100622.98;;;1.15;100.00
23899;BME280;20544;50.018;20.010;2023-01-25T03:48:34;100617.97;;;1.10;100.00
23899;BME280;20544;50.018;20.010;2023-01-25T03:51:51;100613.34;;;0.98;100.00
23899;BME280;20544;50.018;20.010;2023-01-25T03:55:11;100603.80;;;0.97;100.00
23899;BME280;20544;50.018;20.010;2023-01-25T03:58:28;100609.28;;;0.92;100.00
23899;BME280;20544;50.018;20.010;2023-01-25T04:01:44;100605.27;;;0.85;100.00
23899;BME280;20544;50.018;20.010;2023-01-25T04:05:01;100612.19;;;0.86;100.00
23899;BME280;20544;50.018;20.010;2023-01-25T04:08:19;100607.88;;;0.85;100.00
23899;BME280;20544;50.018;20.010;2023-01-25T04:11:37;100596.81;;;0.80;100.00
23899;BME280;20544;50.018;20.010;2023-01-25T04:14:54;100599.31;;;0.64;100.00
23899;BME280;20544;50.018;20.010;2023-01-25T04:18:11;100592.77;;;0.55;100.00
23899;BME280;20544;50.018;20.010;2023-01-25T04:21:28;100583.86;;;0.59;100.00
23899;BME280;20544;50.018;20.010;2023-01-25T04:24:45;100582.73;;;0.65;100.00
23899;BME280;20544;50.018;20.010;2023-01-25T04:28:01;100575.64;;;0.67;100.00
23899;BME280;20544;50.018;20.010;2023-01-25T04:31:18;100574.73;;;0.68;100.00
23899;BME280;20544;50.018;20.010;2023-01-25T04:34:37;100580.16;;;0.63;100.00
23899;BME280;20544;50.018;20.010;2023-01-25T04:37:56;100573.48;;;0.58;100.00
23899;BME280;20544;50.018;20.010;2023-01-25T04:41:17;100574.48;;;0.55;100.00
23899;BME280;20544;50.018;20.010;2023-01-25T04:44:36;100569.05;;;0.60;100.00
23899;BME280;20544;50.018;20.010;2023-01-25T04:47:59;100571.41;;;0.64;100.00
23899;BME280;20544;50.018;20.010;2023-01-25T04:51:19;100569.67;;;0.65;100.00
23899;BME280;20544;50.018;20.010;2023-01-25T04:54:36;100572.20;;;0.67;100.00
23899;BME280;20544;50.018;20.010;2023-01-25T04:57:53;100570.58;;;0.64;100.00
23899;BME280;20544;50.018;20.010;2023-01-25T05:01:10;100572.49;;;0.60;100.00
23899;BME280;20544;50.018;20.010;2023-01-25T05:04:27;100570.95;;;0.56;100.00
23899;BME280;20544;50.018;20.010;2023-01-25T05:07:44;100566.44;;;0.60;100.00
23899;BME280;20544;50.018;20.010;2023-01-25T05:11:00;100566.14;;;0.66;100.00
23899;BME280;20544;50.018;20.010;2023-01-25T05:14:30;100562.66;;;0.66;100.00
23899;BME280;20544;50.018;20.010;2023-01-25T05:17:46;100563.66;;;0.63;100.00
23899;BME280;20544;50.018;20.010;2023-01-25T05:21:03;100561.83;;;0.65;100.00
23899;BME280;20544;50.018;20.010;2023-01-25T05:24:23;100558.44;;;0.63;100.00
23899;BME280;20544;50.018;20.010;2023-01-25T05:27:42;100553.99;;;0.65;100.00
23899;BME280;20544;50.018;20.010;2023-01-25T05:31:01;100550.52;;;0.64;100.00
23899;BME280;20544;50.018;20.010;2023-01-25T05:34:18;100560.97;;;0.64;100.00
23899;BME280;20544;50.018;20.010;2023-01-25T05:37:34;100557.41;;;0.48;100.00
23899;BME280;20544;50.018;20.010;2023-01-25T05:40:56;100552.19;;;0.48;100.00
23899;BME280;20544;50.018;20.010;2023-01-25T05:44:13;100553.10;;;0.47;100.00
23899;BME280;20544;50.018;20.010;2023-01-25T05:47:30;100541.04;;;0.44;100.00
23899;BME280;20544;50.018;20.010;2023-01-25T05:50:47;100546.42;;;0.41;100.00
23899;BME280;20544;50.018;20.010;2023-01-25T05:54:03;100547.95;;;0.45;100.00
23899;BME280;20544;50.018;20.010;2023-01-25T05:57:22;100552.89;;;0.52;100.00
23899;BME280;20544;50.018;20.010;2023-01-25T06:00:39;100547.58;;;0.53;100.00
23899;BME280;20544;50.018;20.010;2023-01-25T06:03:58;100546.75;;;0.53;100.00
23899;BME280;20544;50.018;20.010;2023-01-25T06:07:14;100560.64;;;0.53;100.00
23899;BME280;20544;50.018;20.010;2023-01-25T06:10:32;100556.28;;;0.54;100.00
23899;BME280;20544;50.018;20.010;2023-01-25T06:13:49;100552.38;;;0.62;100.00
23899;BME280;20544;50.018;20.010;2023-01-25T06:17:06;100551.22;;;0.68;100.00
23899;BME280;20544;50.018;20.010;2023-01-25T06:20:36;100551.30;;;0.67;100.00
23899;BME280;20544;50.018;20.010;2023-01-25T06:23:53;100550.47;;;0.66;100.00
23899;BME280;20544;50.018;20.010;2023-01-25T06:27:09;100546.08;;;0.67;100.00
23899;BME280;20544;50.018;20.010;2023-01-25T06:30:26;100548.61;;;0.68;100.00
23899;BME280;20544;50.018;20.010;2023-01-25T06:33:46;100552.08;;;0.69;100.00
23899;BME280;20544;50.018;20.010;2023-01-25T06:37:02;100541.84;;;0.64;100.00
23899;BME280;20544;50.018;20.010;2023-01-25T06:40:19;100536.76;;;0.61;100.00
23899;BME280;20544;50.018;20.010;2023-01-25T06:43:35;100536.70;;;0.62;100.00
23899;BME280;20544;50.018;20.010;2023-01-25T06:46:52;100533.31;;;0.60;100.00
23899;BME280;20544;50.018;20.010;2023-01-25T06:50:10;100529.88;;;0.60;100.00
23899;BME280;20544;50.018;20.010;2023-01-25T06:53:29;100529.70;;;0.63;100.00
23899;BME280;20544;50.018;20.010;2023-01-25T06:56:46;100534.09;;;0.62;100.00
23899;BME280;20544;50.018;20.010;2023-01-25T07:00:03;100525.27;;;0.65;100.00
23899;BME280;20544;50.018;20.010;2023-01-25T07:03:21;100523.64;;;0.62;100.00
23899;BME280;20544;50.018;20.010;2023-01-25T07:06:38;100519.64;;;0.55;100.00
23899;BME280;20544;50.018;20.010;2023-01-25T07:09:54;100518.94;;;0.52;100.00
23899;BME280;20544;50.018;20.010;2023-01-25T07:13:11;100523.00;;;0.57;100.00
23899;BME280;20544;50.018;20.010;2023-01-25T07:16:30;100530.48;;;0.65;100.00
23899;BME280;20544;50.018;20.010;2023-01-25T07:19:49;100518.88;;;0.71;100.00
23899;BME280;20544;50.018;20.010;2023-01-25T07:23:05;100517.95;;;0.72;100.00
23899;BME280;20544;50.018;20.010;2023-01-25T07:26:24;100516.95;;;0.74;100.00
23899;BME280;20544;50.018;20.010;2023-01-25T07:29:40;100511.51;;;0.79;100.00
23899;BME280;20544;50.018;20.010;2023-01-25T07:32:57;100524.09;;;0.88;100.00
23899;BME280;20544;50.018;20.010;2023-01-25T07:36:14;100522.95;;;0.94;100.00
23899;BME280;20544;50.018;20.010;2023-01-25T07:39:31;100516.03;;;0.93;100.00
23899;BME280;20544;50.018;20.010;2023-01-25T07:42:51;100510.81;;;0.93;100.00
23899;BME280;20544;50.018;20.010;2023-01-25T07:46:11;100509.11;;;0.92;100.00
23899;BME280;20544;50.018;20.010;2023-01-25T07:49:28;100500.22;;;0.96;100.00
23899;BME280;20544;50.018;20.010;2023-01-25T07:52:44;100490.73;;;0.93;100.00
23899;BME280;20544;50.018;20.010;2023-01-25T07:56:00;100496.91;;;0.92;100.00
23899;BME280;20544;50.018;20.010;2023-01-25T07:59:17;100497.34;;;1.01;100.00
23899;BME280;20544;50.018;20.010;2023-01-25T08:02:34;100494.81;;;0.99;100.00
23899;BME280;20544;50.018;20.010;2023-01-25T08:05:50;100488.81;;;0.97;100.00
23899;BME280;20544;50.018;20.010;2023-01-25T08:09:10;100491.98;;;1.04;100.00
23899;BME280;20544;50.018;20.010;2023-01-25T08:12:28;100486.06;;;1.00;100.00
23899;BME280;20544;50.018;20.010;2023-01-25T08:15:51;100474.52;;;1.04;100.00
23899;BME280;20544;50.018;20.010;2023-01-25T08:19:08;100478.50;;;1.11;100.00
23899;BME280;20544;50.018;20.010;2023-01-25T08:22:25;100473.88;;;1.17;100.00
23899;BME280;20544;50.018;20.010;2023-01-25T08:25:41;100478.88;;;1.21;100.00
23899;BME280;20544;50.018;20.010;2023-01-25T08:28:58;100474.94;;;1.30;100.00
23899;BME280;20544;50.018;20.010;2023-01-25T08:32:15;100471.07;;;1.37;100.00
23899;BME280;20544;50.018;20.010;2023-01-25T08:35:54;100465.52;;;1.43;100.00
23899;BME280;20544;50.018;20.010;2023-01-25T08:39:12;100473.19;;;1.47;100.00
23899;BME280;20544;50.018;20.010;2023-01-25T08:42:47;100471.25;;;1.50;100.00
23899;BME280;20544;50.018;20.010;2023-01-25T08:47:42;100468.40;;;1.55;100.00
23899;BME280;20544;50.018;20.010;2023-01-25T08:51:14;100462.98;;;1.58;100.00
23899;BME280;20544;50.018;20.010;2023-01-25T08:54:32;100463.84;;;1.58;100.00
23899;BME280;20544;50.018;20.010;2023-01-25T08:57:51;100471.42;;;1.63;100.00
23899;BME280;20544;50.018;20.010;2023-01-25T09:01:28;100476.50;;;1.66;100.00
23899;BME280;20544;50.018;20.010;2023-01-25T09:04:49;100465.95;;;1.68;100.00
23899;BME280;20544;50.018;20.010;2023-01-25T09:08:09;100464.02;;;1.71;100.00
23899;BME280;20544;50.018;20.010;2023-01-25T09:11:26;100460.13;;;1.63;100.00
23899;BME280;20544;50.018;20.010;2023-01-25T09:14:47;100456.72;;;1.44;100.00
23899;BME280;20544;50.018;20.010;2023-01-25T09:18:03;100452.17;;;1.32;100.00
23899;BME280;20544;50.018;20.010;2023-01-25T09:21:22;100443.23;;;1.36;100.00
23899;BME280;20544;50.018;20.010;2023-01-25T09:24:38;100435.80;;;1.44;100.00
23899;BME280;20544;50.018;20.010;2023-01-25T09:27:57;100430.66;;;1.43;100.00
23899;BME280;20544;50.018;20.010;2023-01-25T09:31:16;100434.14;;;1.43;100.00
23899;BME280;20544;50.018;20.010;2023-01-25T09:34:55;100429.05;;;1.40;100.00
23899;BME280;20544;50.018;20.010;2023-01-25T09:38:12;100421.38;;;1.53;100.00
23899;BME280;20544;50.018;20.010;2023-01-25T09:45:34;100422.67;;;1.62;100.00
23899;BME280;20544;50.018;20.010;2023-01-25T09:48:55;100408.23;;;1.71;100.00
23899;BME280;20544;50.018;20.010;2023-01-25T09:52:26;100401.89;;;1.59;100.00
23899;BME280;20544;50.018;20.010;2023-01-25T09:56:00;100402.14;;;1.70;100.00
23899;BME280;20544;50.018;20.010;2023-01-25T09:59:20;100396.07;;;1.86;100.00
23899;BME280;20544;50.018;20.010;2023-01-25T10:02:42;100395.73;;;1.76;100.00
23899;BME280;20544;50.018;20.010;2023-01-25T10:06:02;100384.36;;;1.61;100.00
23899;BME280;20544;50.018;20.010;2023-01-25T10:09:26;100380.88;;;1.60;100.00
23899;BME280;20544;50.018;20.010;2023-01-25T10:12:45;100373.70;;;1.64;100.00
23899;BME280;20544;50.018;20.010;2023-01-25T10:16:05;100362.41;;;1.64;100.00
23899;BME280;20544;50.018;20.010;2023-01-25T10:19:31;100354.47;;;1.65;100.00
23899;BME280;20544;50.018;20.010;2023-01-25T10:22:58;100344.91;;;1.80;100.00
23899;BME280;20544;50.018;20.010;2023-01-25T10:26:23;100344.21;;;1.92;100.00
23899;BME280;20544;50.018;20.010;2023-01-25T10:29:44;100346.58;;;1.97;100.00
23899;BME280;20544;50.018;20.010;2023-01-25T10:33:08;100339.10;;;2.05;100.00
23899;BME280;20544;50.018;20.010;2023-01-25T10:36:28;100343.05;;;2.13;100.00
23899;BME280;20544;50.018;20.010;2023-01-25T10:39:51;100331.75;;;2.12;100.00
23899;BME280;20544;50.018;20.010;2023-01-25T10:43:13;100326.16;;;2.18;100.00
23899;BME280;20544;50.018;20.010;2023-01-25T10:46:31;100324.63;;;2.14;100.00
23899;BME280;20544;50.018;20.010;2023-01-25T10:49:52;100321.09;;;2.15;100.00
23899;BME280;20544;50.018;20.010;2023-01-25T10:53:29;100325.20;;;2.19;100.00
23899;BME280;20544;50.018;20.010;2023-01-25T10:56:48;100317.90;;;2.10;100.00
23899;BME280;20544;50.018;20.010;2023-01-25T11:00:19;100318.30;;;2.18;100.00
23899;BME280;20544;50.018;20.010;2023-01-25T11:03:41;100321.48;;;2.23;100.00
23899;BME280;20544;50.018;20.010;2023-01-25T11:06:58;100314.96;;;2.31;100.00
23899;BME280;20544;50.018;20.010;2023-01-25T11:10:30;100313.17;;;2.31;100.00
23899;BME280;20544;50.018;20.010;2023-01-25T11:13:47;100306.24;;;2.30;100.00
23899;BME280;20544;50.018;20.010;2023-01-25T11:17:09;100298.48;;;2.29;100.00
23899;BME280;20544;50.018;20.010;2023-01-25T11:20:35;100294.74;;;2.33;100.00
23899;BME280;20544;50.018;20.010;2023-01-25T11:24:16;100289.41;;;2.34;100.00
23899;BME280;20544;50.018;20.010;2023-01-25T11:27:33;100283.60;;;2.29;100.00
23899;BME280;20544;50.018;20.010;2023-01-25T11:30:50;100269.78;;;2.27;100.00
23899;BME280;20544;50.018;20.010;2023-01-25T11:34:12;100278.73;;;2.23;100.00
23899;BME280;20544;50.018;20.010;2023-01-25T11:37:37;100267.53;;;2.21;100.00
23899;BME280;20544;50.018;20.010;2023-01-25T11:41:00;100266.50;;;2.23;100.00
23899;BME280;20544;50.018;20.010;2023-01-25T11:48:44;100251.42;;;2.13;100.00
23899;BME280;20544;50.018;20.010;2023-01-25T11:52:18;100243.30;;;2.17;100.00
23899;BME280;20544;50.018;20.010;2023-01-25T11:55:42;100229.35;;;2.17;100.00
23899;BME280;20544;50.018;20.010;2023-01-25T11:59:11;100236.94;;;2.07;100.00
23899;BME280;20544;50.018;20.010;2023-01-25T12:06:24;100227.86;;;2.13;100.00
23899;BME280;20544;50.018;20.010;2023-01-25T12:09:54;100225.14;;;2.14;100.00
23899;BME280;20544;50.018;20.010;2023-01-25T12:13:18;100218.61;;;2.21;100.00
23899;BME280;20544;50.018;20.010;2023-01-25T12:16:47;100214.86;;;2.25;100.00
23899;BME280;20544;50.018;20.010;2023-01-25T12:20:25;100205.25;;;2.26;100.00
23899;BME280;20544;50.018;20.010;2023-01-25T12:23:59;100192.32;;;2.23;100.00
23899;BME280;20544;50.018;20.010;2023-01-25T12:27:28;100193.00;;;2.12;100.00
23899;BME280;20544;50.018;20.010;2023-01-25T12:30:55;100187.29;;;2.20;100.00
23899;BME280;20544;50.018;20.010;2023-01-25T12:34:18;100183.53;;;2.24;100.00
23899;BME280;20544;50.018;20.010;2023-01-25T12:37:38;100179.23;;;2.23;100.00
23899;BME280;20544;50.018;20.010;2023-01-25T12:41:01;100166.14;;;2.23;100.00
23899;BME280;20544;50.018;20.010;2023-01-25T12:44:26;100164.18;;;2.26;100.00
23899;BME280;20544;50.018;20.010;2023-01-25T12:47:48;100158.11;;;2.26;100.00
23899;BME280;20544;50.018;20.010;2023-01-25T12:54:18;100160.73;;;2.26;100.00
23899;BME280;20544;50.018;20.010;2023-01-25T12:57:52;100161.20;;;2.18;100.00
23899;BME280;20544;50.018;20.010;2023-01-25T13:01:15;100150.45;;;2.08;100.00
23899;BME280;20544;50.018;20.010;2023-01-25T13:04:48;100153.42;;;1.88;100.00
23899;BME280;20544;50.018;20.010;2023-01-25T13:08:13;100142.42;;;1.97;100.00
23899;BME280;20544;50.018;20.010;2023-01-25T13:11:37;100144.46;;;2.06;100.00
23899;BME280;20544;50.018;20.010;2023-01-25T13:14:55;100139.14;;;1.93;100.00
23899;BME280;20544;50.018;20.010;2023-01-25T13:18:37;100135.84;;;2.04;100.00
23899;BME280;20544;50.018;20.010;2023-01-25T13:21:55;100139.05;;;2.09;100.00
23899;BME280;20544;50.018;20.010;2023-01-25T13:25:20;100133.44;;;2.16;100.00
23899;BME280;20544;50.018;20.010;2023-01-25T13:28:43;100132.58;;;2.15;100.00
23899;BME280;20544;50.018;20.010;2023-01-25T13:32:01;100129.86;;;2.17;100.00
23899;BME280;20544;50.018;20.010;2023-01-25T13:35:35;100126.31;;;2.18;100.00
23899;BME280;20544;50.018;20.010;2023-01-25T13:38:59;100127.17;;;2.18;100.00
23899;BME280;20544;50.018;20.010;2023-01-25T13:42:23;100122.21;;;2.14;100.00
23899;BME280;20544;50.018;20.010;2023-01-25T13:45:42;100115.56;;;2.08;100.00
23899;BME280;20544;50.018;20.010;2023-01-25T13:49:12;100117.66;;;1.88;100.00
23899;BME280;20544;50.018;20.010;2023-01-25T13:52:34;100103.05;;;1.84;100.00
23899;BME280;20544;50.018;20.010;2023-01-25T13:55:52;100102.59;;;1.77;100.00
23899;BME280;20544;50.018;20.010;2023-01-25T13:59:25;100102.02;;;1.87;100.00
23899;BME280;20544;50.018;20.010;2023-01-25T14:02:47;100107.84;;;1.92;100.00
23899;BME280;20544;50.018;20.010;2023-01-25T14:06:06;100105.95;;;1.94;100.00
23899;BME280;20544;50.018;20.010;2023-01-25T14:09:30;100087.73;;;1.92;100.00
23899;BME280;20544;50.018;20.010;2023-01-25T14:12:47;100092.31;;;1.89;100.00
23899;BME280;20544;50.018;20.010;2023-01-25T14:16:11;100090.27;;;1.80;100.00
23899;BME280;20544;50.018;20.010;2023-01-25T14:19:29;100089.22;;;1.68;100.00
23899;BME280;20544;50.018;20.010;2023-01-25T14:22:52;100080.73;;;1.78;100.00
23899;BME280;20544;50.018;20.010;2023-01-25T14:26:28;100074.84;;;1.75;100.00
23899;BME280;20544;50.018;20.010;2023-01-25T14:29:50;100068.48;;;1.79;100.00
23899;BME280;20544;50.018;20.010;2023-01-25T14:33:16;100066.44;;;1.70;100.00
23899;BME280;20544;50.018;20.010;2023-01-25T14:36:35;100067.65;;;1.78;100.00
23899;BME280;20544;50.018;20.010;2023-01-25T14:39:52;100061.94;;;1.72;100.00
23899;BME280;20544;50.018;20.010;2023-01-25T14:43:11;100065.51;;;1.71;100.00
23899;BME280;20544;50.018;20.010;2023-01-25T14:46:30;100070.64;;;1.72;100.00
23899;BME280;20544;50.018;20.010;2023-01-25T14:49:47;100069.61;;;1.75;100.00
23899;BME280;20544;50.018;20.010;2023-01-25T14:53:15;100057.66;;;1.71;100.00
23899;BME280;20544;50.018;20.010;2023-01-25T14:56:42;100055.67;;;1.74;100.00
23899;BME280;20544;50.018;20.010;2023-01-25T15:00:04;100064.27;;;1.76;100.00
23899;BME280;20544;50.018;20.010;2023-01-25T15:03:34;100063.62;;;1.73;100.00
23899;BME280;20544;50.018;20.010;2023-01-25T15:06:59;100055.67;;;1.74;100.00
23899;BME280;20544;50.018;20.010;2023-01-25T15:10:22;100059.14;;;1.75;100.00
23899;BME280;20544;50.018;20.010;2023-01-25T15:13:41;100051.02;;;1.65;100.00
23899;BME280;20544;50.018;20.010;2023-01-25T15:16:59;100049.70;;;1.58;100.00
23899;BME280;20544;50.018;20.010;2023-01-25T15:20:34;100045.38;;;1.28;100.00
23899;BME280;20544;50.018;20.010;2023-01-25T15:23:52;100043.45;;;1.46;100.00
23899;BME280;20544;50.018;20.010;2023-01-25T15:27:12;100042.52;;;1.47;100.00
23899;BME280;20544;50.018;20.010;2023-01-25T15:30:29;100030.08;;;1.51;100.00
23899;BME280;20544;50.018;20.010;2023-01-25T15:33:46;100019.92;;;1.46;100.00
23899;BME280;20544;50.018;20.010;2023-01-25T15:37:03;100026.53;;;1.52;100.00
23899;BME280;20544;50.018;20.010;2023-01-25T15:40:21;100022.88;;;1.54;100.00
23899;BME280;20544;50.018;20.010;2023-01-25T15:43:40;100016.27;;;1.49;100.00
23899;BME280;20544;50.018;20.010;2023-01-25T15:46:58;100022.06;;;1.54;100.00
23899;BME280;20544;50.018;20.010;2023-01-25T15:50:20;100022.88;;;1.54;100.00
23899;BME280;20544;50.018;20.010;2023-01-25T15:53:37;100017.00;;;1.51;100.00
23899;BME280;20544;50.018;20.010;2023-01-25T15:56:57;100015.14;;;1.53;100.00
23899;BME280;20544;50.018;20.010;2023-01-25T16:00:19;100013.83;;;1.45;100.00
23899;BME280;20544;50.018;20.010;2023-01-25T16:03:36;100009.83;;;1.40;100.00
23899;BME280;20544;50.018;20.010;2023-01-25T16:06:54;100003.75;;;1.54;100.00
23899;BME280;20544;50.018;20.010;2023-01-25T16:10:19;100003.75;;;1.54;100.00
23899;BME280;20544;50.018;20.010;2023-01-25T16:13:37;100003.28;;;1.33;100.00
23899;BME280;20544;50.018;20.010;2023-01-25T16:16:54;100000.56;;;1.34;100.00
23899;BME280;20544;50.018;20.010;2023-01-25T16:20:19;99993.09;;;1.28;100.00
23899;BME280;20544;50.018;20.010;2023-01-25T16:23:36;99996.09;;;1.36;100.00
23899;BME280;20544;50.018;20.010;2023-01-25T16:26:54;99984.78;;;1.36;100.00
23899;BME280;20544;50.018;20.010;2023-01-25T16:30:18;99980.96;;;1.41;100.00
23899;BME280;20544;50.018;20.010;2023-01-25T16:33:38;99968.08;;;1.24;100.00
23899;BME280;20544;50.018;20.010;2023-01-25T16:36:55;99961.34;;;1.34;100.00
23899;BME280;20544;50.018;20.010;2023-01-25T16:40:20;99967.13;;;1.39;100.00
23899;BME280;20544;50.018;20.010;2023-01-25T16:43:40;99968.47;;;1.32;100.00
23899;BME280;20544;50.018;20.010;2023-01-25T16:46:57;99954.27;;;1.36;100.00
23899;BME280;20544;50.018;20.010;2023-01-25T16:50:17;99961.55;;;1.31;100.00
23899;BME280;20544;50.018;20.010;2023-01-25T16:53:35;99954.36;;;1.35;100.00
23899;BME280;20544;50.018;20.010;2023-01-25T16:56:52;99949.96;;;1.35;100.00
23899;BME280;20544;50.018;20.010;2023-01-25T17:00:13;99942.67;;;1.40;100.00
23899;BME280;20544;50.018;20.010;2023-01-25T17:03:30;99933.14;;;1.39;100.00
23899;BME280;20544;50.018;20.010;2023-01-25T17:06:49;99938.37;;;1.39;100.00
23899;BME280;20544;50.018;20.010;2023-01-25T17:10:12;99934.72;;;1.42;100.00
23899;BME280;20544;50.018;20.010;2023-01-25T17:13:29;99924.27;;;1.42;100.00
23899;BME280;20544;50.018;20.010;2023-01-25T17:16:47;99930.25;;;1.44;100.00
23899;BME280;20544;50.018;20.010;2023-01-25T17:20:06;99925.02;;;1.44;100.00
23899;BME280;20544;50.018;20.010;2023-01-25T17:23:22;99925.30;;;1.39;100.00
23899;BME280;20544;50.018;20.010;2023-01-25T17:26:39;99912.77;;;1.44;100.00
23899;BME280;20544;50.018;20.010;2023-01-25T17:29:56;99911.84;;;1.45;100.00
23899;BME280;20544;50.018;20.010;2023-01-25T17:33:13;99914.45;;;1.45;100.00
23899;BME280;20544;50.018;20.010;2023-01-25T17:36:30;99909.05;;;1.49;100.00